createdAt,value
2018-07-11T00:01:17.347Z,11.50
2018-07-11T00:03:44.292Z,11.50
2018-07-11T00:06:11.252Z,11.50
2018-07-11T00:08:38.101Z,11.40
2018-07-11T00:11:05.049Z,11.40
2018-07-11T00:13:32.008Z,11.40
2018-07-11T00:15:58.850Z,11.40
2018-07-11T00:18:25.906Z,11.30
2018-07-11T00:20:52.855Z,11.20
2018-07-11T00:23:21.546Z,11.10
2018-07-11T00:25:49.009Z,11.10
2018-07-11T00:28:15.959Z,11.10
2018-07-11T00:30:42.912Z,11.10
2018-07-11T00:33:09.865Z,11.00
2018-07-11T00:35:36.814Z,11.00
2018-07-11T00:38:03.768Z,11.00
2018-07-11T00:40:31.332Z,11.00
2018-07-11T00:42:58.284Z,11.00
2018-07-11T00:45:25.134Z,10.90
2018-07-11T00:47:51.966Z,10.90
2018-07-11T00:50:18.931Z,10.90
2018-07-11T00:52:45.886Z,10.80
2018-07-11T00:55:13.039Z,10.80
2018-07-11T00:57:39.889Z,10.70
2018-07-11T01:00:06.842Z,10.70
2018-07-11T01:02:33.895Z,10.70
2018-07-11T01:05:00.949Z,10.60
2018-07-11T01:07:27.899Z,10.60
2018-07-11T01:09:54.852Z,10.60
2018-07-11T01:12:21.801Z,10.60
2018-07-11T01:14:48.754Z,10.70
2018-07-11T01:17:15.602Z,10.70
2018-07-11T01:19:42.656Z,10.60
2018-07-11T01:22:09.606Z,10.60
2018-07-11T01:24:36.559Z,10.60
2018-07-11T01:27:03.403Z,10.60
2018-07-11T01:29:30.360Z,10.60
2018-07-11T01:31:57.516Z,10.50
2018-07-11T01:34:24.465Z,10.50
2018-07-11T01:36:52.136Z,10.40
2018-07-11T01:39:19.085Z,10.40
2018-07-11T01:41:46.036Z,10.40
2018-07-11T01:44:13.000Z,10.40
2018-07-11T01:46:39.933Z,10.40
2018-07-11T01:49:06.891Z,10.40
2018-07-11T01:51:34.251Z,10.30
2018-07-11T01:54:01.204Z,10.30
2018-07-11T01:56:28.158Z,10.30
2018-07-11T01:58:55.926Z,10.30
2018-07-11T02:01:22.773Z,10.30
2018-07-11T02:03:50.379Z,10.30
2018-07-11T02:06:17.298Z,10.30
2018-07-11T02:08:44.243Z,10.20
2018-07-11T02:11:11.194Z,10.20
2018-07-11T02:13:38.030Z,10.10
2018-07-11T02:16:04.890Z,10.20
2018-07-11T02:18:31.739Z,10.20
2018-07-11T02:20:58.692Z,10.10
2018-07-11T02:23:25.748Z,10.10
2018-07-11T02:25:52.796Z,10.00
2018-07-11T02:28:19.753Z,10.00
2018-07-11T02:30:46.703Z,10.00
2018-07-11T02:33:14.268Z,10.00
2018-07-11T02:35:41.219Z,10.10
2018-07-11T02:38:08.376Z,10.10
2018-07-11T02:40:35.223Z,10.00
2018-07-11T02:43:02.176Z,10.00
2018-07-11T02:45:29.536Z,10.00
2018-07-11T02:47:56.591Z,10.00
2018-07-11T02:50:23.951Z,10.00
2018-07-11T02:52:50.902Z,10.00
2018-07-11T02:55:18.362Z,10.00
2018-07-11T02:57:45.315Z,10.10
2018-07-11T03:00:12.165Z,10.10
2018-07-11T03:02:39.220Z,10.30
2018-07-11T03:05:06.273Z,10.30
2018-07-11T03:07:33.223Z,10.30
2018-07-11T03:10:00.083Z,10.40
2018-07-11T03:12:26.910Z,10.40
2018-07-11T03:14:53.870Z,10.50
2018-07-11T03:17:20.651Z,10.40
2018-07-11T03:19:47.674Z,10.50
2018-07-11T03:22:14.627Z,10.50
2018-07-11T03:24:41.473Z,10.50
2018-07-11T03:27:08.451Z,10.60
2018-07-11T03:29:35.478Z,10.60
2018-07-11T03:32:02.429Z,10.70
2018-07-11T03:34:29.278Z,10.80
2018-07-11T03:36:56.127Z,10.80
2018-07-11T03:39:23.078Z,11.00
2018-07-11T03:41:50.032Z,11.00
2018-07-11T03:44:16.982Z,11.10
2018-07-11T03:46:43.935Z,11.20
2018-07-11T03:49:11.190Z,11.30
2018-07-11T03:51:38.348Z,11.40
2018-07-11T03:54:05.197Z,11.40
2018-07-11T03:56:32.558Z,11.60
2018-07-11T03:58:59.327Z,11.90
2018-07-11T04:01:26.255Z,12.30
2018-07-11T04:03:53.105Z,12.70
2018-07-11T04:06:20.875Z,13.20
2018-07-11T04:08:47.724Z,13.20
2018-07-11T04:11:15.085Z,13.50
2018-07-11T04:13:41.933Z,13.70
2018-07-11T04:16:08.787Z,14.10
2018-07-11T04:18:35.621Z,14.80
2018-07-11T04:21:02.584Z,15.70
2018-07-11T04:23:30.352Z,16.70
2018-07-11T04:25:57.304Z,17.70
2018-07-11T04:28:25.178Z,18.60
2018-07-11T04:30:52.439Z,19.10
2018-07-11T04:33:19.402Z,19.50
2018-07-11T04:35:46.339Z,21.50
2018-07-11T04:38:13.287Z,24.00
2018-07-11T04:40:40.126Z,25.50
2018-07-11T04:43:07.192Z,27.20
2018-07-11T04:45:34.040Z,30.00
2018-07-11T04:48:00.889Z,29.30
2018-07-11T04:50:27.842Z,32.10
2018-07-11T04:52:54.779Z,31.80
2018-07-11T04:55:21.934Z,34.20
2018-07-11T04:57:48.900Z,33.20
2018-07-11T05:00:15.748Z,34.60
2018-07-11T05:02:42.698Z,35.40
2018-07-11T05:05:10.368Z,35.70
2018-07-11T05:07:37.522Z,35.70
2018-07-11T05:10:04.476Z,35.50
2018-07-11T05:12:31.326Z,34.60
2018-07-11T05:14:58.277Z,35.80
2018-07-11T05:17:25.226Z,36.00
2018-07-11T05:19:52.485Z,36.00
2018-07-11T05:22:19.435Z,34.70
2018-07-11T05:24:46.283Z,33.50
2018-07-11T05:27:13.226Z,34.70
2018-07-11T05:29:40.597Z,35.90
2018-07-11T05:32:07.446Z,36.30
2018-07-11T05:34:34.295Z,37.20
2018-07-11T05:37:01.246Z,36.80
2018-07-11T05:39:28.507Z,37.90
2018-07-11T05:41:55.868Z,38.70
2018-07-11T05:44:22.820Z,39.80
2018-07-11T05:46:49.765Z,38.60
2018-07-11T05:49:16.721Z,39.40
2018-07-11T05:51:43.876Z,40.30
2018-07-11T05:54:10.827Z,40.00
2018-07-11T05:56:37.778Z,39.70
2018-07-11T05:59:05.037Z,39.40
2018-07-11T06:01:32.080Z,39.30
2018-07-11T06:03:58.838Z,39.10
2018-07-11T06:06:25.788Z,37.60
2018-07-11T06:08:53.564Z,36.70
2018-07-11T06:11:20.514Z,36.60
2018-07-11T06:13:47.463Z,36.70
2018-07-11T06:16:14.730Z,37.10
2018-07-11T06:18:41.578Z,37.80
2018-07-11T06:21:08.520Z,37.10
2018-07-11T06:23:35.778Z,38.00
2018-07-11T06:26:03.435Z,38.10
2018-07-11T06:28:30.706Z,38.10
2018-07-11T06:30:57.965Z,39.60
2018-07-11T06:33:24.959Z,40.90
2018-07-11T06:35:52.172Z,40.50
2018-07-11T06:38:19.123Z,39.90
2018-07-11T06:40:45.973Z,39.40
2018-07-11T06:43:13.947Z,38.60
2018-07-11T06:45:41.721Z,40.60
2018-07-11T06:48:08.867Z,39.10
2018-07-11T06:50:35.828Z,37.80
2018-07-11T06:53:03.786Z,40.70
2018-07-11T06:55:30.751Z,40.60
2018-07-11T06:57:57.701Z,40.60
2018-07-11T07:00:24.656Z,41.40
2018-07-11T07:02:51.911Z,41.40
2018-07-11T07:05:18.865Z,38.50
2018-07-11T07:07:45.713Z,37.70
2018-07-11T07:10:13.481Z,36.10
2018-07-11T07:12:40.435Z,35.90
2018-07-11T07:15:07.283Z,33.80
2018-07-11T07:17:34.131Z,34.40
2018-07-11T07:20:00.970Z,33.60
2018-07-11T07:22:27.955Z,33.10
2018-07-11T07:24:57.442Z,35.40
2018-07-11T07:27:24.395Z,35.40
2018-07-11T07:29:51.344Z,34.40
2018-07-11T07:32:18.602Z,34.40
2018-07-11T07:34:46.516Z,36.30
2018-07-11T07:37:13.734Z,35.10
2018-07-11T07:39:40.686Z,34.70
2018-07-11T07:42:07.638Z,33.20
2018-07-11T07:44:35.290Z,30.50
2018-07-11T07:47:02.884Z,30.00
2018-07-11T07:49:30.332Z,30.80
2018-07-11T07:51:57.593Z,31.60
2018-07-11T07:54:24.542Z,30.60
2018-07-11T07:56:51.496Z,30.60
2018-07-11T07:59:18.856Z,29.90
2018-07-11T08:01:46.419Z,29.30
2018-07-11T08:04:13.270Z,29.30
2018-07-11T08:06:40.220Z,28.40
2018-07-11T08:09:06.966Z,29.80
2018-07-11T08:11:34.941Z,32.00
2018-07-11T08:14:02.198Z,31.90
2018-07-11T08:16:29.458Z,33.00
2018-07-11T08:18:56.821Z,32.10
2018-07-11T08:21:23.779Z,31.50
2018-07-11T08:24:13.033Z,30.40
2018-07-11T08:26:52.468Z,29.50
2018-07-11T08:29:19.421Z,29.10
2018-07-11T08:31:46.470Z,29.70
2018-07-11T08:34:14.139Z,30.00
2018-07-11T08:36:41.503Z,30.00
2018-07-11T08:39:08.557Z,30.90
2018-07-11T08:41:36.324Z,32.40
2018-07-11T08:44:04.093Z,32.40
2018-07-11T08:46:31.760Z,29.70
2018-07-11T08:48:58.916Z,29.60
2018-07-11T08:51:26.073Z,28.90
2018-07-11T08:53:53.163Z,29.00
2018-07-11T08:56:20.186Z,30.40
2018-07-11T08:58:47.643Z,30.10
2018-07-11T09:01:14.594Z,29.40
2018-07-11T09:03:41.970Z,28.20
2018-07-11T09:06:08.906Z,27.90
2018-07-11T09:08:36.577Z,27.50
2018-07-11T09:11:03.525Z,27.50
2018-07-11T09:13:30.582Z,27.10
2018-07-11T09:15:57.635Z,27.00
2018-07-11T09:18:24.483Z,26.90
2018-07-11T09:20:51.537Z,26.40
2018-07-11T09:23:18.489Z,26.40
2018-07-11T09:25:47.683Z,26.80
2018-07-11T09:28:14.745Z,26.90
2018-07-11T09:30:41.801Z,27.00
2018-07-11T09:33:08.747Z,27.40
2018-07-11T09:35:35.597Z,27.60
2018-07-11T09:38:02.549Z,26.60
2018-07-11T09:40:29.707Z,25.90
2018-07-11T09:42:56.761Z,25.40
2018-07-11T09:45:23.829Z,25.50
2018-07-11T09:47:50.970Z,26.40
2018-07-11T09:50:18.126Z,26.00
2018-07-11T09:52:45.896Z,26.40
2018-07-11T09:55:12.743Z,26.80
2018-07-11T09:57:39.943Z,26.80
2018-07-11T10:00:06.952Z,26.60
2018-07-11T10:02:33.801Z,26.10
2018-07-11T10:05:01.164Z,25.70
2018-07-11T10:07:28.525Z,25.40
2018-07-11T10:09:55.473Z,25.90
2018-07-11T10:12:22.324Z,26.40
2018-07-11T10:14:50.106Z,25.70
2018-07-11T10:17:16.931Z,25.70
2018-07-11T10:19:43.929Z,25.30
2018-07-11T10:22:11.045Z,25.70
2018-07-11T10:24:37.857Z,25.70
2018-07-11T10:27:05.976Z,26.20
2018-07-11T10:29:32.769Z,26.20
2018-07-11T10:31:59.678Z,26.00
2018-07-11T10:34:27.137Z,26.40
2018-07-11T10:36:55.216Z,27.10
2018-07-11T10:39:22.058Z,27.00
2018-07-11T10:41:48.911Z,27.00
2018-07-11T10:44:16.070Z,26.90
2018-07-11T10:46:42.813Z,26.40
2018-07-11T10:49:09.766Z,26.40
2018-07-11T10:51:37.129Z,25.90
2018-07-11T10:54:04.078Z,26.10
2018-07-11T10:56:31.439Z,26.00
2018-07-11T10:58:58.494Z,26.80
2018-07-11T11:01:25.470Z,27.30
2018-07-11T11:03:52.288Z,27.70
2018-07-11T11:06:20.171Z,27.20
2018-07-11T11:08:47.691Z,27.40
2018-07-11T11:11:14.580Z,27.10
2018-07-11T11:13:41.428Z,26.20
2018-07-11T11:16:10.019Z,26.10
2018-07-11T11:18:36.868Z,26.00
2018-07-11T11:21:04.434Z,26.20
2018-07-11T11:23:31.794Z,25.90
2018-07-11T11:25:58.641Z,26.10
2018-07-11T11:28:26.002Z,25.70
2018-07-11T11:30:53.362Z,25.90
2018-07-11T11:33:20.218Z,25.40
2018-07-11T11:35:47.289Z,25.50
2018-07-11T11:38:14.229Z,25.70
2018-07-11T11:40:41.068Z,25.40
2018-07-11T11:43:09.044Z,26.60
2018-07-11T11:45:35.989Z,26.60
2018-07-11T11:48:02.841Z,27.10
2018-07-11T11:50:29.794Z,27.00
2018-07-11T11:52:56.945Z,27.10
2018-07-11T11:55:23.899Z,26.40
2018-07-11T11:57:50.857Z,26.00
2018-07-11T12:00:18.210Z,25.50
2018-07-11T12:02:45.267Z,25.00
2018-07-11T12:05:12.626Z,25.00
2018-07-11T12:07:39.817Z,24.80
2018-07-11T12:10:07.245Z,25.20
2018-07-11T12:12:34.195Z,24.80
2018-07-11T12:15:01.250Z,25.10
2018-07-11T12:17:29.126Z,25.70
2018-07-11T12:19:56.283Z,26.10
2018-07-11T12:22:23.128Z,25.70
2018-07-11T12:24:50.794Z,26.10
2018-07-11T12:27:17.747Z,26.00
2018-07-11T12:29:44.700Z,25.20
2018-07-11T12:32:12.056Z,25.20
2018-07-11T12:34:39.213Z,25.30
2018-07-11T12:37:06.369Z,25.30
2018-07-11T12:39:34.655Z,25.00
2018-07-11T12:42:01.810Z,24.90
2018-07-11T12:44:29.086Z,24.60
2018-07-11T12:46:56.019Z,24.50
2018-07-11T12:49:22.938Z,24.60
2018-07-11T12:51:50.841Z,23.80
2018-07-11T12:54:18.203Z,23.80
2018-07-11T12:56:45.256Z,23.60
2018-07-11T12:59:12.413Z,23.40
2018-07-11T13:01:39.772Z,23.30
2018-07-11T13:04:07.134Z,23.60
2018-07-11T13:06:34.700Z,23.60
2018-07-11T13:09:01.856Z,23.50
2018-07-11T13:11:29.109Z,23.50
2018-07-11T13:13:56.576Z,23.30
2018-07-11T13:16:23.761Z,23.30
2018-07-11T13:18:50.893Z,23.20
2018-07-11T13:21:18.134Z,23.50
2018-07-11T13:23:44.983Z,23.50
2018-07-11T13:26:12.995Z,23.90
2018-07-11T13:28:40.331Z,23.80
2018-07-11T13:31:07.191Z,23.70
2018-07-11T13:33:34.950Z,23.60
2018-07-11T13:36:02.519Z,23.60
2018-07-11T13:38:29.568Z,23.80
2018-07-11T13:40:57.223Z,24.10
2018-07-11T13:43:24.187Z,24.00
2018-07-11T13:45:51.240Z,24.00
2018-07-11T13:48:18.602Z,24.00
2018-07-11T13:50:45.553Z,23.90
2018-07-11T13:53:12.507Z,23.80
2018-07-11T13:55:39.763Z,23.80
2018-07-11T13:58:07.418Z,23.70
2018-07-11T14:00:34.484Z,23.80
2018-07-11T14:03:01.591Z,23.80
2018-07-11T14:05:29.196Z,24.00
2018-07-11T14:07:56.320Z,24.50
2018-07-11T14:10:24.543Z,25.20
2018-07-11T14:12:51.878Z,25.20
2018-07-11T14:15:19.364Z,25.20
2018-07-11T14:17:46.215Z,25.40
2018-07-11T14:20:13.882Z,25.20
2018-07-11T14:22:40.832Z,25.20
2018-07-11T14:25:07.683Z,25.10
2018-07-11T14:27:35.196Z,24.80
2018-07-11T14:30:02.710Z,24.30
2018-07-11T14:32:30.787Z,23.90
2018-07-11T14:34:57.740Z,23.90
2018-07-11T14:37:24.791Z,23.70
2018-07-11T14:39:51.875Z,23.90
2018-07-11T14:42:18.670Z,23.90
2018-07-11T14:44:45.556Z,23.70
2018-07-11T14:47:12.906Z,23.70
2018-07-11T14:49:39.859Z,23.50
2018-07-11T14:52:06.723Z,23.30
2018-07-11T14:54:33.658Z,23.00
2018-07-11T14:57:00.508Z,23.10
2018-07-11T14:59:27.456Z,23.10
2018-07-11T15:01:54.304Z,23.00
2018-07-11T15:04:21.257Z,23.00
2018-07-11T15:06:48.311Z,23.30
2018-07-11T15:09:15.861Z,23.00
2018-07-11T15:11:42.623Z,23.00
2018-07-11T15:14:09.461Z,23.00
2018-07-11T15:16:36.322Z,22.90
2018-07-11T15:19:03.684Z,22.80
2018-07-11T15:21:31.452Z,23.10
2018-07-11T15:23:58.303Z,23.00
2018-07-11T15:26:25.666Z,23.20
2018-07-11T15:28:59.571Z,23.40
2018-07-11T15:31:26.419Z,23.50
2018-07-11T15:33:53.265Z,23.50
2018-07-11T15:36:20.631Z,23.70
2018-07-11T15:38:47.682Z,23.40
2018-07-11T15:41:14.946Z,23.20
2018-07-11T15:43:41.792Z,22.80
2018-07-11T15:46:08.742Z,22.70
2018-07-11T15:48:35.826Z,22.30
2018-07-11T15:51:03.728Z,21.80
2018-07-11T15:53:30.627Z,21.70
2018-07-11T15:55:57.572Z,21.60
2018-07-11T15:58:24.412Z,21.60
2018-07-11T16:00:51.888Z,21.50
2018-07-11T16:03:19.236Z,21.50
2018-07-11T16:05:47.023Z,21.90
2018-07-11T16:08:13.862Z,21.90
2018-07-11T16:10:40.813Z,22.30
2018-07-11T16:13:07.766Z,22.60
2018-07-11T16:15:35.022Z,23.00
2018-07-11T16:18:02.277Z,23.00
2018-07-11T16:20:29.132Z,23.00
2018-07-11T16:22:56.387Z,22.80
2018-07-11T16:25:23.748Z,22.80
2018-07-11T16:27:51.112Z,22.50
2018-07-11T16:30:18.064Z,22.40
2018-07-11T16:32:45.423Z,22.00
2018-07-11T16:35:12.682Z,22.10
2018-07-11T16:37:39.529Z,22.20
2018-07-11T16:40:06.789Z,22.20
2018-07-11T16:42:35.274Z,21.80
2018-07-11T16:45:06.843Z,21.80
2018-07-11T16:47:33.885Z,21.60
2018-07-11T16:50:00.938Z,21.80
2018-07-11T16:52:28.127Z,21.50
2018-07-11T16:54:55.248Z,21.50
2018-07-11T16:57:22.510Z,21.40
2018-07-11T16:59:49.351Z,21.30
2018-07-11T17:02:16.307Z,21.30
2018-07-11T17:04:43.771Z,21.10
2018-07-11T17:07:11.017Z,20.90
2018-07-11T17:09:37.873Z,20.70
2018-07-11T17:12:04.726Z,20.70
2018-07-11T17:14:31.783Z,20.50
2018-07-11T17:16:58.733Z,20.60
2018-07-11T17:19:25.585Z,20.50
2018-07-11T17:21:52.634Z,20.50
2018-07-11T17:24:20.816Z,20.40
2018-07-11T17:26:48.373Z,20.40
2018-07-11T17:29:15.228Z,20.40
2018-07-11T17:31:42.179Z,20.30
2018-07-11T17:34:09.951Z,20.40
2018-07-11T17:36:36.901Z,20.30
2018-07-11T17:39:04.757Z,20.40
2018-07-11T17:41:33.054Z,20.20
2018-07-11T17:44:00.927Z,20.20
2018-07-11T17:46:28.288Z,20.20
2018-07-11T17:48:55.162Z,20.10
2018-07-11T17:51:22.077Z,20.00
2018-07-11T17:53:48.938Z,20.10
2018-07-11T17:56:15.907Z,20.10
2018-07-11T17:58:43.054Z,20.10
2018-07-11T18:01:10.102Z,20.00
2018-07-11T18:03:37.154Z,20.00
2018-07-11T18:06:04.513Z,19.80
2018-07-11T18:08:31.364Z,19.80
2018-07-11T18:10:58.308Z,19.90
2018-07-11T18:13:25.429Z,19.70
2018-07-11T18:15:52.420Z,19.70
2018-07-11T18:18:19.358Z,19.70
2018-07-11T18:20:46.325Z,19.70
2018-07-11T18:23:13.579Z,19.70
2018-07-11T18:25:40.942Z,19.60
2018-07-11T18:28:10.264Z,19.60
2018-07-11T18:30:37.405Z,19.70
2018-07-11T18:33:04.355Z,19.60
2018-07-11T18:35:31.305Z,19.60
2018-07-11T18:37:58.562Z,19.60
2018-07-11T18:40:25.515Z,19.50
2018-07-11T18:42:52.470Z,19.40
2018-07-11T18:45:19.318Z,19.40
2018-07-11T18:47:46.272Z,19.20
2018-07-11T18:50:13.335Z,19.20
2018-07-11T18:52:40.263Z,19.00
2018-07-11T18:55:07.224Z,19.00
2018-07-11T18:57:34.179Z,18.80
2018-07-11T19:00:01.128Z,18.70
2018-07-11T19:02:28.079Z,18.60
2018-07-11T19:04:54.913Z,18.50
2018-07-11T19:07:21.983Z,18.30
2018-07-11T19:09:48.933Z,18.10
2018-07-11T19:12:15.885Z,17.90
2018-07-11T19:14:42.939Z,17.70
2018-07-11T19:17:09.779Z,17.60
2018-07-11T19:19:36.741Z,17.50
2018-07-11T19:22:03.674Z,17.40
2018-07-11T19:24:30.639Z,17.30
2018-07-11T19:26:57.593Z,17.20
2018-07-11T19:29:24.536Z,17.10
2018-07-11T19:31:51.392Z,17.00
2018-07-11T19:34:18.344Z,16.80
2018-07-11T19:36:45.476Z,16.70
2018-07-11T19:39:12.349Z,16.70
2018-07-11T19:41:39.810Z,16.50
2018-07-11T19:44:06.663Z,16.40
2018-07-11T19:46:33.508Z,16.30
2018-07-11T19:49:00.562Z,16.30
2018-07-11T19:51:28.029Z,16.10
2018-07-11T19:53:55.900Z,16.00
2018-07-11T19:56:22.796Z,16.00
2018-07-11T19:58:51.438Z,15.90
2018-07-11T20:01:18.391Z,15.80
2018-07-11T20:03:45.240Z,15.70
2018-07-11T20:06:12.193Z,15.60
2018-07-11T20:08:39.262Z,15.50
2018-07-11T20:11:06.911Z,15.40
2018-07-11T20:13:33.862Z,15.40
2018-07-11T20:16:00.816Z,15.30
2018-07-11T20:18:28.210Z,15.30
2018-07-11T20:20:55.125Z,15.20
2018-07-11T20:23:22.079Z,15.20
2018-07-11T20:25:49.133Z,15.10
2018-07-11T20:28:16.081Z,15.10
2018-07-11T20:30:43.031Z,15.00
2018-07-11T20:33:09.881Z,14.90
2018-07-11T20:35:36.731Z,14.90
2018-07-11T20:38:04.376Z,15.00
2018-07-11T20:40:31.351Z,14.90
2018-07-11T20:42:58.199Z,14.80
2018-07-11T20:45:25.048Z,14.80
2018-07-11T20:47:52.004Z,14.80
2018-07-11T20:50:18.849Z,14.70
2018-07-11T20:52:46.517Z,14.70
2018-07-11T20:55:13.273Z,14.60
2018-07-11T20:57:40.209Z,14.60
2018-07-11T21:03:14.538Z,14.40
2018-07-11T21:05:41.593Z,14.30
2018-07-11T21:08:08.441Z,14.20
2018-07-11T21:10:35.494Z,14.10
2018-07-11T21:13:02.551Z,14.00
2018-07-11T21:15:29.501Z,13.90
2018-07-11T21:17:56.452Z,13.80
2018-07-11T21:20:23.290Z,13.70
2018-07-11T21:22:50.155Z,13.90
2018-07-11T21:25:17.820Z,13.50
2018-07-11T21:27:45.780Z,13.50
2018-07-11T21:30:13.255Z,13.50
2018-07-11T21:32:40.208Z,13.50
2018-07-11T21:35:08.184Z,13.50
2018-07-11T21:37:34.979Z,13.50
2018-07-11T21:40:02.599Z,13.60
2018-07-11T21:42:29.548Z,13.50
2018-07-11T21:44:56.501Z,13.60
2018-07-11T21:47:23.348Z,13.60
2018-07-11T21:49:51.016Z,13.60
2018-07-11T21:52:17.975Z,13.60
2018-07-11T21:54:44.917Z,13.60
2018-07-11T21:57:12.484Z,13.60
2018-07-11T21:59:39.334Z,13.60
2018-07-11T22:02:07.312Z,13.50
2018-07-11T22:04:34.888Z,13.60
2018-07-11T22:07:01.927Z,13.50
2018-07-11T22:09:28.879Z,13.50
2018-07-11T22:11:57.261Z,13.50
2018-07-11T22:14:24.005Z,13.40
2018-07-11T22:16:50.856Z,13.40
2018-07-11T22:19:18.046Z,13.40
2018-07-11T22:21:44.526Z,13.30
2018-07-11T22:24:11.915Z,13.20
2018-07-11T22:26:38.967Z,13.20
2018-07-11T22:29:05.614Z,13.20
2018-07-11T22:31:32.666Z,13.10
2018-07-11T22:33:59.619Z,13.10
2018-07-11T22:36:26.262Z,13.00
2018-07-11T22:38:53.009Z,13.00
2018-07-11T22:41:20.062Z,12.90
2018-07-11T22:43:46.612Z,12.90
2018-07-11T22:46:13.249Z,12.80
2018-07-11T22:48:39.892Z,12.70
2018-07-11T22:51:06.435Z,12.70
2018-07-11T22:53:33.080Z,12.60
2018-07-11T22:55:59.622Z,12.40
2018-07-11T22:58:26.268Z,12.30
2018-07-11T23:00:52.808Z,12.30
2018-07-11T23:03:19.350Z,12.20
2018-07-11T23:05:45.996Z,12.20
2018-07-11T23:08:13.363Z,12.10
2018-07-11T23:10:40.104Z,12.00
2018-07-11T23:13:07.362Z,12.10
2018-07-11T23:15:33.898Z,12.00
2018-07-11T23:18:00.444Z,12.00
2018-07-11T23:20:27.121Z,12.00
2018-07-11T23:22:54.247Z,12.00
2018-07-11T23:25:20.890Z,12.00
2018-07-11T23:27:47.534Z,12.00
2018-07-11T23:30:14.692Z,12.00
2018-07-11T23:32:41.335Z,12.10
2018-07-11T23:35:07.875Z,12.10
2018-07-11T23:37:34.423Z,11.90
2018-07-11T23:40:01.269Z,11.90
2018-07-11T23:42:27.913Z,11.80
2018-07-11T23:44:54.559Z,11.80
2018-07-11T23:47:21.100Z,11.70
2018-07-11T23:49:47.751Z,11.70
2018-07-11T23:52:14.388Z,11.70
2018-07-11T23:54:41.036Z,11.70
2018-07-11T23:57:07.676Z,11.70
2018-07-11T23:59:34.202Z,11.70
